sensor_id;sensor_type;location;lat;lon;timestamp;temperature;humidity
22379;DHT22;11357;49.990;7.370;2023-12-04T00:01:50;1.70;82.80
22379;DHT22;11357;49.990;7.370;2023-12-04T00:04:15;1.60;82.80
22379;DHT22;11357;49.990;7.370;2023-12-04T00:06:41;1.60;82.90
22379;DHT22;11357;49.990;7.370;2023-12-04T00:09:07;1.50;83.00
22379;DHT22;11357;49.990;7.370;2023-12-04T00:11:33;1.50;83.00
22379;DHT22;11357;49.990;7.370;2023-12-04T00:13:59;1.50;83.00
22379;DHT22;11357;49.990;7.370;2023-12-04T00:16:25;1.50;83.10
22379;DHT22;11357;49.990;7.370;2023-12-04T00:18:51;1.50;83.20
22379;DHT22;11357;49.990;7.370;2023-12-04T00:21:16;1.50;83.20
22379;DHT22;11357;49.990;7.370;2023-12-04T00:23:42;1.40;83.10
22379;DHT22;11357;49.990;7.370;2023-12-04T00:26:08;1.40;83.20
22379;DHT22;11357;49.990;7.370;2023-12-04T00:28:36;1.30;83.30
22379;DHT22;11357;49.990;7.370;2023-12-04T00:31:02;1.30;83.40
22379;DHT22;11357;49.990;7.370;2023-12-04T00:33:28;1.30;83.40
22379;DHT22;11357;49.990;7.370;2023-12-04T00:35:53;1.40;83.50
22379;DHT22;11357;49.990;7.370;2023-12-04T00:38:19;1.40;83.50
22379;DHT22;11357;49.990;7.370;2023-12-04T00:40:45;1.40;83.40
22379;DHT22;11357;49.990;7.370;2023-12-04T00:43:10;1.40;83.30
22379;DHT22;11357;49.990;7.370;2023-12-04T00:45:36;1.40;83.30
22379;DHT22;11357;49.990;7.370;2023-12-04T00:48:02;1.40;83.30
22379;DHT22;11357;49.990;7.370;2023-12-04T00:50:28;1.40;83.40
22379;DHT22;11357;49.990;7.370;2023-12-04T00:52:54;1.50;83.40
22379;DHT22;11357;49.990;7.370;2023-12-04T00:55:19;1.50;83.30
22379;DHT22;11357;49.990;7.370;2023-12-04T00:57:46;1.50;83.20
22379;DHT22;11357;49.990;7.370;2023-12-04T01:00:12;1.50;83.20
22379;DHT22;11357;49.990;7.370;2023-12-04T01:02:38;1.40;83.20
22379;DHT22;11357;49.990;7.370;2023-12-04T01:05:04;1.40;83.20
22379;DHT22;11357;49.990;7.370;2023-12-04T01:07:29;1.40;83.20
22379;DHT22;11357;49.990;7.370;2023-12-04T01:09:55;1.50;83.20
22379;DHT22;11357;49.990;7.370;2023-12-04T01:12:21;1.40;83.20
22379;DHT22;11357;49.990;7.370;2023-12-04T01:14:47;1.40;83.30
22379;DHT22;11357;49.990;7.370;2023-12-04T01:17:12;1.40;83.30
22379;DHT22;11357;49.990;7.370;2023-12-04T01:19:38;1.40;83.20
22379;DHT22;11357;49.990;7.370;2023-12-04T01:22:05;1.40;83.30
22379;DHT22;11357;49.990;7.370;2023-12-04T01:24:30;1.40;83.30
22379;DHT22;11357;49.990;7.370;2023-12-04T01:26:56;1.40;83.20
22379;DHT22;11357;49.990;7.370;2023-12-04T01:29:22;1.40;83.30
22379;DHT22;11357;49.990;7.370;2023-12-04T01:31:47;1.40;83.30
22379;DHT22;11357;49.990;7.370;2023-12-04T01:34:13;1.30;83.20
22379;DHT22;11357;49.990;7.370;2023-12-04T01:36:42;1.30;83.30
22379;DHT22;11357;49.990;7.370;2023-12-04T01:39:08;1.30;83.40
22379;DHT22;11357;49.990;7.370;2023-12-04T01:41:33;1.30;83.40
22379;DHT22;11357;49.990;7.370;2023-12-04T01:43:59;1.30;83.40
22379;DHT22;11357;49.990;7.370;2023-12-04T01:46:25;1.30;83.40
22379;DHT22;11357;49.990;7.370;2023-12-04T01:48:52;1.30;83.40
22379;DHT22;11357;49.990;7.370;2023-12-04T01:51:19;1.30;83.40
22379;DHT22;11357;49.990;7.370;2023-12-04T01:53:46;1.30;83.40
22379;DHT22;11357;49.990;7.370;2023-12-04T01:56:14;1.30;83.50
22379;DHT22;11357;49.990;7.370;2023-12-04T01:58:40;1.30;83.50
22379;DHT22;11357;49.990;7.370;2023-12-04T02:01:06;1.30;83.50
22379;DHT22;11357;49.990;7.370;2023-12-04T02:03:33;1.30;84.10
22379;DHT22;11357;49.990;7.370;2023-12-04T02:06:03;1.30;84.10
22379;DHT22;11357;49.990;7.370;2023-12-04T02:08:29;1.30;83.40
22379;DHT22;11357;49.990;7.370;2023-12-04T02:10:55;1.30;83.40
22379;DHT22;11357;49.990;7.370;2023-12-04T02:13:21;1.30;83.40
22379;DHT22;11357;49.990;7.370;2023-12-04T02:15:49;1.30;83.50
22379;DHT22;11357;49.990;7.370;2023-12-04T02:18:17;1.30;83.50
22379;DHT22;11357;49.990;7.370;2023-12-04T02:20:43;1.30;83.50
22379;DHT22;11357;49.990;7.370;2023-12-04T02:23:09;1.30;83.50
22379;DHT22;11357;49.990;7.370;2023-12-04T02:25:35;1.30;83.50
22379;DHT22;11357;49.990;7.370;2023-12-04T02:28:02;1.30;83.50
22379;DHT22;11357;49.990;7.370;2023-12-04T02:30:29;1.30;83.50
22379;DHT22;11357;49.990;7.370;2023-12-04T02:32:57;1.30;83.50
22379;DHT22;11357;49.990;7.370;2023-12-04T02:35:27;1.30;83.50
22379;DHT22;11357;49.990;7.370;2023-12-04T02:37:55;1.20;83.70
22379;DHT22;11357;49.990;7.370;2023-12-04T02:40:24;1.20;83.70
22379;DHT22;11357;49.990;7.370;2023-12-04T02:42:49;1.10;83.80
22379;DHT22;11357;49.990;7.370;2023-12-04T02:45:15;1.10;83.80
22379;DHT22;11357;49.990;7.370;2023-12-04T02:47:41;1.10;83.90
22379;DHT22;11357;49.990;7.370;2023-12-04T02:50:07;1.10;83.80
22379;DHT22;11357;49.990;7.370;2023-12-04T02:52:32;1.10;83.90
22379;DHT22;11357;49.990;7.370;2023-12-04T02:54:58;1.10;84.00
22379;DHT22;11357;49.990;7.370;2023-12-04T02:57:24;1.10;84.00
22379;DHT22;11357;49.990;7.370;2023-12-04T02:59:49;1.10;84.00
22379;DHT22;11357;49.990;7.370;2023-12-04T03:02:15;1.10;84.00
22379;DHT22;11357;49.990;7.370;2023-12-04T03:04:41;1.10;84.00
22379;DHT22;11357;49.990;7.370;2023-12-04T03:07:06;1.10;84.10
22379;DHT22;11357;49.990;7.370;2023-12-04T03:09:32;1.10;84.10
22379;DHT22;11357;49.990;7.370;2023-12-04T03:11:57;1.10;84.00
22379;DHT22;11357;49.990;7.370;2023-12-04T03:14:23;1.10;84.00
22379;DHT22;11357;49.990;7.370;2023-12-04T03:16:49;1.10;84.70
22379;DHT22;11357;49.990;7.370;2023-12-04T03:19:15;1.10;84.00
22379;DHT22;11357;49.990;7.370;2023-12-04T03:21:40;1.10;84.00
22379;DHT22;11357;49.990;7.370;2023-12-04T03:24:06;1.10;84.20
22379;DHT22;11357;49.990;7.370;2023-12-04T03:26:32;1.10;84.20
22379;DHT22;11357;49.990;7.370;2023-12-04T03:28:57;1.00;84.10
22379;DHT22;11357;49.990;7.370;2023-12-04T03:31:23;1.00;84.20
22379;DHT22;11357;49.990;7.370;2023-12-04T03:33:49;1.00;84.20
22379;DHT22;11357;49.990;7.370;2023-12-04T03:36:14;1.00;84.20
22379;DHT22;11357;49.990;7.370;2023-12-04T03:38:40;1.00;84.30
22379;DHT22;11357;49.990;7.370;2023-12-04T03:41:13;1.10;84.30
22379;DHT22;11357;49.990;7.370;2023-12-04T03:43:39;1.10;84.40
22379;DHT22;11357;49.990;7.370;2023-12-04T03:46:05;1.10;84.30
22379;DHT22;11357;49.990;7.370;2023-12-04T03:48:30;1.10;84.20
22379;DHT22;11357;49.990;7.370;2023-12-04T03:50:56;1.20;84.30
22379;DHT22;11357;49.990;7.370;2023-12-04T03:53:22;1.20;84.30
22379;DHT22;11357;49.990;7.370;2023-12-04T03:55:47;1.20;84.20
22379;DHT22;11357;49.990;7.370;2023-12-04T03:58:13;1.20;84.20
22379;DHT22;11357;49.990;7.370;2023-12-04T04:00:38;1.20;84.10
22379;DHT22;11357;49.990;7.370;2023-12-04T04:03:07;1.20;84.10
22379;DHT22;11357;49.990;7.370;2023-12-04T04:05:33;1.20;84.10
22379;DHT22;11357;49.990;7.370;2023-12-04T04:08:00;1.10;84.20
22379;DHT22;11357;49.990;7.370;2023-12-04T04:10:25;1.10;84.30
22379;DHT22;11357;49.990;7.370;2023-12-04T04:12:51;1.10;84.30
22379;DHT22;11357;49.990;7.370;2023-12-04T04:15:17;1.20;84.40
22379;DHT22;11357;49.990;7.370;2023-12-04T04:17:42;1.20;84.40
22379;DHT22;11357;49.990;7.370;2023-12-04T04:20:08;1.20;84.40
22379;DHT22;11357;49.990;7.370;2023-12-04T04:22:35;1.20;84.40
22379;DHT22;11357;49.990;7.370;2023-12-04T04:25:12;1.20;84.40
22379;DHT22;11357;49.990;7.370;2023-12-04T04:27:38;1.10;84.50
22379;DHT22;11357;49.990;7.370;2023-12-04T04:30:04;1.10;84.50
22379;DHT22;11357;49.990;7.370;2023-12-04T04:32:29;1.10;84.60
22379;DHT22;11357;49.990;7.370;2023-12-04T04:34:55;1.10;84.70
22379;DHT22;11357;49.990;7.370;2023-12-04T04:37:21;1.10;84.70
22379;DHT22;11357;49.990;7.370;2023-12-04T04:39:46;1.00;84.80
22379;DHT22;11357;49.990;7.370;2023-12-04T04:42:12;1.00;84.90
22379;DHT22;11357;49.990;7.370;2023-12-04T04:44:38;1.00;84.90
22379;DHT22;11357;49.990;7.370;2023-12-04T04:47:03;1.00;84.90
22379;DHT22;11357;49.990;7.370;2023-12-04T04:49:29;1.10;84.90
22379;DHT22;11357;49.990;7.370;2023-12-04T04:51:55;1.10;84.90
22379;DHT22;11357;49.990;7.370;2023-12-04T04:54:20;1.20;84.90
22379;DHT22;11357;49.990;7.370;2023-12-04T04:56:46;1.20;84.70
22379;DHT22;11357;49.990;7.370;2023-12-04T04:59:12;1.20;84.80
22379;DHT22;11357;49.990;7.370;2023-12-04T05:01:37;1.20;84.70
22379;DHT22;11357;49.990;7.370;2023-12-04T05:04:03;1.20;84.80
22379;DHT22;11357;49.990;7.370;2023-12-04T05:06:29;1.30;84.80
22379;DHT22;11357;49.990;7.370;2023-12-04T05:08:56;1.30;84.80
22379;DHT22;11357;49.990;7.370;2023-12-04T05:11:22;1.30;84.70
22379;DHT22;11357;49.990;7.370;2023-12-04T05:13:48;1.30;84.60
22379;DHT22;11357;49.990;7.370;2023-12-04T05:16:13;1.30;85.20
22379;DHT22;11357;49.990;7.370;2023-12-04T05:18:39;1.30;84.60
22379;DHT22;11357;49.990;7.370;2023-12-04T05:21:11;1.20;84.60
22379;DHT22;11357;49.990;7.370;2023-12-04T05:23:37;1.20;84.70
22379;DHT22;11357;49.990;7.370;2023-12-04T05:26:04;1.20;84.60
22379;DHT22;11357;49.990;7.370;2023-12-04T05:28:30;1.20;84.70
22379;DHT22;11357;49.990;7.370;2023-12-04T05:30:56;1.20;84.70
22379;DHT22;11357;49.990;7.370;2023-12-04T05:33:21;1.20;84.70
22379;DHT22;11357;49.990;7.370;2023-12-04T05:35:50;1.20;84.60
22379;DHT22;11357;49.990;7.370;2023-12-04T05:38:19;1.30;84.70
22379;DHT22;11357;49.990;7.370;2023-12-04T05:40:45;1.30;84.60
22379;DHT22;11357;49.990;7.370;2023-12-04T05:43:10;1.30;84.50
22379;DHT22;11357;49.990;7.370;2023-12-04T05:45:36;1.30;84.50
22379;DHT22;11357;49.990;7.370;2023-12-04T05:48:02;1.30;84.50
22379;DHT22;11357;49.990;7.370;2023-12-04T05:50:28;1.30;84.40
22379;DHT22;11357;49.990;7.370;2023-12-04T05:52:53;1.40;84.40
22379;DHT22;11357;49.990;7.370;2023-12-04T05:55:19;1.40;84.40
22379;DHT22;11357;49.990;7.370;2023-12-04T05:57:45;1.40;84.40
22379;DHT22;11357;49.990;7.370;2023-12-04T06:00:12;1.40;84.30
22379;DHT22;11357;49.990;7.370;2023-12-04T06:02:41;1.40;84.30
22379;DHT22;11357;49.990;7.370;2023-12-04T06:05:07;1.40;84.40
22379;DHT22;11357;49.990;7.370;2023-12-04T06:07:33;1.40;84.40
22379;DHT22;11357;49.990;7.370;2023-12-04T06:09:59;1.40;84.30
22379;DHT22;11357;49.990;7.370;2023-12-04T06:12:25;1.30;84.20
22379;DHT22;11357;49.990;7.370;2023-12-04T06:14:51;1.40;84.30
22379;DHT22;11357;49.990;7.370;2023-12-04T06:17:16;1.40;84.30
22379;DHT22;11357;49.990;7.370;2023-12-04T06:19:42;1.40;84.30
22379;DHT22;11357;49.990;7.370;2023-12-04T06:22:08;1.40;84.20
22379;DHT22;11357;49.990;7.370;2023-12-04T06:24:34;1.30;84.10
22379;DHT22;11357;49.990;7.370;2023-12-04T06:27:00;1.30;84.10
22379;DHT22;11357;49.990;7.370;2023-12-04T06:29:26;1.30;84.10
22379;DHT22;11357;49.990;7.370;2023-12-04T06:31:52;1.40;84.20
22379;DHT22;11357;49.990;7.370;2023-12-04T06:34:18;1.40;84.20
22379;DHT22;11357;49.990;7.370;2023-12-04T06:36:44;1.40;84.20
22379;DHT22;11357;49.990;7.370;2023-12-04T06:39:11;1.50;83.90
22379;DHT22;11357;49.990;7.370;2023-12-04T06:41:38;1.50;83.70
22379;DHT22;11357;49.990;7.370;2023-12-04T06:44:04;1.60;83.70
22379;DHT22;11357;49.990;7.370;2023-12-04T06:46:31;1.50;83.60
22379;DHT22;11357;49.990;7.370;2023-12-04T06:48:59;1.50;83.60
22379;DHT22;11357;49.990;7.370;2023-12-04T06:51:25;1.40;83.70
22379;DHT22;11357;49.990;7.370;2023-12-04T06:53:50;1.40;83.70
22379;DHT22;11357;49.990;7.370;2023-12-04T06:56:16;1.40;84.40
22379;DHT22;11357;49.990;7.370;2023-12-04T06:58:42;1.50;83.70
22379;DHT22;11357;49.990;7.370;2023-12-04T07:01:07;1.50;83.70
22379;DHT22;11357;49.990;7.370;2023-12-04T07:03:33;1.50;83.60
22379;DHT22;11357;49.990;7.370;2023-12-04T07:05:58;1.50;83.60
22379;DHT22;11357;49.990;7.370;2023-12-04T07:08:25;1.50;83.60
22379;DHT22;11357;49.990;7.370;2023-12-04T07:10:50;1.50;83.60
22379;DHT22;11357;49.990;7.370;2023-12-04T07:13:16;1.50;83.60
22379;DHT22;11357;49.990;7.370;2023-12-04T07:15:42;1.50;83.60
22379;DHT22;11357;49.990;7.370;2023-12-04T07:18:07;1.60;83.50
22379;DHT22;11357;49.990;7.370;2023-12-04T07:20:33;1.60;83.50
22379;DHT22;11357;49.990;7.370;2023-12-04T07:22:59;1.60;83.40
22379;DHT22;11357;49.990;7.370;2023-12-04T07:25:25;1.70;83.50
22379;DHT22;11357;49.990;7.370;2023-12-04T07:27:51;1.70;83.30
22379;DHT22;11357;49.990;7.370;2023-12-04T07:30:17;1.70;83.20
22379;DHT22;11357;49.990;7.370;2023-12-04T07:32:42;1.70;83.20
22379;DHT22;11357;49.990;7.370;2023-12-04T07:35:08;1.80;83.00
22379;DHT22;11357;49.990;7.370;2023-12-04T07:37:34;1.80;83.00
22379;DHT22;11357;49.990;7.370;2023-12-04T07:40:00;1.80;82.90
22379;DHT22;11357;49.990;7.370;2023-12-04T07:42:26;1.80;82.80
22379;DHT22;11357;49.990;7.370;2023-12-04T07:44:51;1.70;82.70
22379;DHT22;11357;49.990;7.370;2023-12-04T07:47:17;1.60;82.80
22379;DHT22;11357;49.990;7.370;2023-12-04T07:49:45;1.70;83.00
22379;DHT22;11357;49.990;7.370;2023-12-04T07:52:10;1.60;82.90
22379;DHT22;11357;49.990;7.370;2023-12-04T07:54:36;1.60;82.90
22379;DHT22;11357;49.990;7.370;2023-12-04T07:57:02;1.60;83.00
22379;DHT22;11357;49.990;7.370;2023-12-04T07:59:29;1.60;83.00
22379;DHT22;11357;49.990;7.370;2023-12-04T08:01:54;1.60;83.00
22379;DHT22;11357;49.990;7.370;2023-12-04T08:04:20;1.60;83.00
22379;DHT22;11357;49.990;7.370;2023-12-04T08:06:46;1.70;83.10
22379;DHT22;11357;49.990;7.370;2023-12-04T08:09:11;1.70;83.00
22379;DHT22;11357;49.990;7.370;2023-12-04T08:11:37;1.70;82.90
22379;DHT22;11357;49.990;7.370;2023-12-04T08:14:04;1.60;82.80
22379;DHT22;11357;49.990;7.370;2023-12-04T08:16:29;1.60;82.80
22379;DHT22;11357;49.990;7.370;2023-12-04T08:18:55;1.60;82.80
22379;DHT22;11357;49.990;7.370;2023-12-04T08:21:21;1.60;82.90
22379;DHT22;11357;49.990;7.370;2023-12-04T08:23:47;1.60;82.90
22379;DHT22;11357;49.990;7.370;2023-12-04T08:26:13;1.60;82.90
22379;DHT22;11357;49.990;7.370;2023-12-04T08:28:38;1.60;82.80
22379;DHT22;11357;49.990;7.370;2023-12-04T08:31:09;1.60;82.90
22379;DHT22;11357;49.990;7.370;2023-12-04T08:33:36;1.60;83.00
22379;DHT22;11357;49.990;7.370;2023-12-04T08:36:01;1.70;83.00
22379;DHT22;11357;49.990;7.370;2023-12-04T08:38:27;1.60;82.90
22379;DHT22;11357;49.990;7.370;2023-12-04T08:40:53;1.60;82.90
22379;DHT22;11357;49.990;7.370;2023-12-04T08:43:19;1.60;82.90
22379;DHT22;11357;49.990;7.370;2023-12-04T08:45:47;1.60;83.00
22379;DHT22;11357;49.990;7.370;2023-12-04T08:48:13;1.60;83.00
22379;DHT22;11357;49.990;7.370;2023-12-04T08:50:39;1.60;83.00
22379;DHT22;11357;49.990;7.370;2023-12-04T08:53:05;1.60;83.00
22379;DHT22;11357;49.990;7.370;2023-12-04T08:55:31;1.60;83.00
22379;DHT22;11357;49.990;7.370;2023-12-04T08:57:57;1.60;83.10
22379;DHT22;11357;49.990;7.370;2023-12-04T09:00:22;1.70;83.30
22379;DHT22;11357;49.990;7.370;2023-12-04T09:02:48;1.70;83.20
22379;DHT22;11357;49.990;7.370;2023-12-04T09:05:14;1.70;83.20
22379;DHT22;11357;49.990;7.370;2023-12-04T09:07:40;1.70;83.20
22379;DHT22;11357;49.990;7.370;2023-12-04T09:10:06;1.70;83.10
22379;DHT22;11357;49.990;7.370;2023-12-04T09:12:32;1.80;83.20
22379;DHT22;11357;49.990;7.370;2023-12-04T09:14:58;1.80;83.10
22379;DHT22;11357;49.990;7.370;2023-12-04T09:17:23;1.80;83.20
22379;DHT22;11357;49.990;7.370;2023-12-04T09:19:49;1.80;83.10
22379;DHT22;11357;49.990;7.370;2023-12-04T09:22:14;1.80;83.20
22379;DHT22;11357;49.990;7.370;2023-12-04T09:24:40;1.80;83.20
22379;DHT22;11357;49.990;7.370;2023-12-04T09:27:06;1.80;83.20
22379;DHT22;11357;49.990;7.370;2023-12-04T09:29:33;1.80;83.20
22379;DHT22;11357;49.990;7.370;2023-12-04T09:31:59;1.80;83.30
22379;DHT22;11357;49.990;7.370;2023-12-04T09:34:25;1.80;83.30
22379;DHT22;11357;49.990;7.370;2023-12-04T09:36:50;1.80;83.40
22379;DHT22;11357;49.990;7.370;2023-12-04T09:39:16;1.90;83.50
22379;DHT22;11357;49.990;7.370;2023-12-04T09:41:43;1.90;83.50
22379;DHT22;11357;49.990;7.370;2023-12-04T09:44:09;2.00;83.50
22379;DHT22;11357;49.990;7.370;2023-12-04T09:46:35;2.00;83.50
22379;DHT22;11357;49.990;7.370;2023-12-04T09:49:02;2.00;83.50
22379;DHT22;11357;49.990;7.370;2023-12-04T09:51:28;2.00;83.60
22379;DHT22;11357;49.990;7.370;2023-12-04T09:53:54;2.00;83.60
22379;DHT22;11357;49.990;7.370;2023-12-04T09:56:23;2.10;83.70
22379;DHT22;11357;49.990;7.370;2023-12-04T09:58:53;2.00;83.80
22379;DHT22;11357;49.990;7.370;2023-12-04T10:01:23;2.00;83.90
22379;DHT22;11357;49.990;7.370;2023-12-04T10:03:50;2.00;84.00
22379;DHT22;11357;49.990;7.370;2023-12-04T10:06:16;2.00;84.20
22379;DHT22;11357;49.990;7.370;2023-12-04T10:08:43;2.00;84.30
22379;DHT22;11357;49.990;7.370;2023-12-04T10:11:10;1.90;84.30
22379;DHT22;11357;49.990;7.370;2023-12-04T10:13:36;1.90;84.60
22379;DHT22;11357;49.990;7.370;2023-12-04T10:16:02;1.90;84.60
22379;DHT22;11357;49.990;7.370;2023-12-04T10:18:30;1.90;84.70
22379;DHT22;11357;49.990;7.370;2023-12-04T10:20:57;1.80;85.70
22379;DHT22;11357;49.990;7.370;2023-12-04T10:23:40;1.80;85.10
22379;DHT22;11357;49.990;7.370;2023-12-04T10:26:06;1.80;85.40
22379;DHT22;11357;49.990;7.370;2023-12-04T10:28:35;1.80;85.50
22379;DHT22;11357;49.990;7.370;2023-12-04T10:31:01;1.80;85.50
22379;DHT22;11357;49.990;7.370;2023-12-04T10:33:29;1.90;85.70
22379;DHT22;11357;49.990;7.370;2023-12-04T10:35:56;2.00;85.70
22379;DHT22;11357;49.990;7.370;2023-12-04T10:38:21;2.00;85.60
22379;DHT22;11357;49.990;7.370;2023-12-04T10:40:47;2.00;85.60
22379;DHT22;11357;49.990;7.370;2023-12-04T10:43:16;2.00;85.70
22379;DHT22;11357;49.990;7.370;2023-12-04T10:45:43;2.00;85.80
22379;DHT22;11357;49.990;7.370;2023-12-04T10:48:11;2.10;85.80
22379;DHT22;11357;49.990;7.370;2023-12-04T10:50:45;2.10;85.90
22379;DHT22;11357;49.990;7.370;2023-12-04T10:53:12;2.10;86.00
22379;DHT22;11357;49.990;7.370;2023-12-04T10:55:40;2.20;86.10
22379;DHT22;11357;49.990;7.370;2023-12-04T10:58:15;2.20;86.00
22379;DHT22;11357;49.990;7.370;2023-12-04T11:00:45;2.20;86.00
22379;DHT22;11357;49.990;7.370;2023-12-04T11:03:20;2.30;86.00
22379;DHT22;11357;49.990;7.370;2023-12-04T11:05:55;2.20;86.00
22379;DHT22;11357;49.990;7.370;2023-12-04T11:08:23;2.30;86.00
22379;DHT22;11357;49.990;7.370;2023-12-04T11:10:59;2.30;86.00
22379;DHT22;11357;49.990;7.370;2023-12-04T11:13:28;2.40;86.00
22379;DHT22;11357;49.990;7.370;2023-12-04T11:16:02;2.40;86.00
22379;DHT22;11357;49.990;7.370;2023-12-04T11:18:32;2.40;86.00
22379;DHT22;11357;49.990;7.370;2023-12-04T11:21:06;2.40;86.00
22379;DHT22;11357;49.990;7.370;2023-12-04T11:23:33;2.40;86.10
22379;DHT22;11357;49.990;7.370;2023-12-04T11:26:00;2.40;86.20
22379;DHT22;11357;49.990;7.370;2023-12-04T11:28:27;2.40;86.30
22379;DHT22;11357;49.990;7.370;2023-12-04T11:30:53;2.40;86.30
22379;DHT22;11357;49.990;7.370;2023-12-04T11:33:20;2.50;86.40
22379;DHT22;11357;49.990;7.370;2023-12-04T11:35:46;2.40;86.40
22379;DHT22;11357;49.990;7.370;2023-12-04T11:38:14;2.40;86.30
22379;DHT22;11357;49.990;7.370;2023-12-04T11:40:42;2.40;86.40
22379;DHT22;11357;49.990;7.370;2023-12-04T11:43:27;2.40;86.50
22379;DHT22;11357;49.990;7.370;2023-12-04T11:45:53;2.50;86.60
22379;DHT22;11357;49.990;7.370;2023-12-04T11:48:32;2.40;86.60
22379;DHT22;11357;49.990;7.370;2023-12-04T11:50:58;2.40;86.70
22379;DHT22;11357;49.990;7.370;2023-12-04T11:53:24;2.40;86.80
22379;DHT22;11357;49.990;7.370;2023-12-04T11:55:50;2.40;86.90
22379;DHT22;11357;49.990;7.370;2023-12-04T11:58:16;2.40;86.90
22379;DHT22;11357;49.990;7.370;2023-12-04T12:00:42;2.50;86.80
22379;DHT22;11357;49.990;7.370;2023-12-04T12:03:08;2.50;87.00
22379;DHT22;11357;49.990;7.370;2023-12-04T12:05:36;2.50;87.00
22379;DHT22;11357;49.990;7.370;2023-12-04T12:08:05;2.50;86.90
22379;DHT22;11357;49.990;7.370;2023-12-04T12:10:32;2.50;87.00
22379;DHT22;11357;49.990;7.370;2023-12-04T12:12:58;2.50;87.10
22379;DHT22;11357;49.990;7.370;2023-12-04T12:15:24;2.50;87.10
22379;DHT22;11357;49.990;7.370;2023-12-04T12:17:50;2.50;87.10
22379;DHT22;11357;49.990;7.370;2023-12-04T12:20:19;2.50;87.20
22379;DHT22;11357;49.990;7.370;2023-12-04T12:22:48;2.50;87.10
22379;DHT22;11357;49.990;7.370;2023-12-04T12:25:15;2.50;87.20
22379;DHT22;11357;49.990;7.370;2023-12-04T12:27:41;2.50;87.20
22379;DHT22;11357;49.990;7.370;2023-12-04T12:30:08;2.50;87.20
22379;DHT22;11357;49.990;7.370;2023-12-04T12:32:34;2.40;87.30
22379;DHT22;11357;49.990;7.370;2023-12-04T12:35:01;2.50;87.40
22379;DHT22;11357;49.990;7.370;2023-12-04T12:37:27;2.50;87.30
22379;DHT22;11357;49.990;7.370;2023-12-04T12:39:53;2.40;87.40
22379;DHT22;11357;49.990;7.370;2023-12-04T12:42:26;2.50;87.70
22379;DHT22;11357;49.990;7.370;2023-12-04T12:44:53;2.50;87.80
22379;DHT22;11357;49.990;7.370;2023-12-04T12:47:18;2.50;87.70
22379;DHT22;11357;49.990;7.370;2023-12-04T12:49:45;2.50;87.80
22379;DHT22;11357;49.990;7.370;2023-12-04T12:52:11;2.50;87.80
22379;DHT22;11357;49.990;7.370;2023-12-04T12:54:37;2.60;87.90
22379;DHT22;11357;49.990;7.370;2023-12-04T12:57:04;2.60;87.90
22379;DHT22;11357;49.990;7.370;2023-12-04T12:59:30;2.70;88.00
22379;DHT22;11357;49.990;7.370;2023-12-04T13:01:56;2.70;88.00
22379;DHT22;11357;49.990;7.370;2023-12-04T13:04:35;2.60;88.00
22379;DHT22;11357;49.990;7.370;2023-12-04T13:07:01;2.60;88.10
22379;DHT22;11357;49.990;7.370;2023-12-04T13:09:28;2.70;88.20
22379;DHT22;11357;49.990;7.370;2023-12-04T13:11:54;2.70;88.20
22379;DHT22;11357;49.990;7.370;2023-12-04T13:14:20;2.70;88.20
22379;DHT22;11357;49.990;7.370;2023-12-04T13:16:46;2.70;88.20
22379;DHT22;11357;49.990;7.370;2023-12-04T13:19:12;2.80;88.30
22379;DHT22;11357;49.990;7.370;2023-12-04T13:21:38;2.80;88.30
22379;DHT22;11357;49.990;7.370;2023-12-04T13:24:04;2.70;88.40
22379;DHT22;11357;49.990;7.370;2023-12-04T13:26:33;2.70;88.60
22379;DHT22;11357;49.990;7.370;2023-12-04T13:28:59;2.70;88.70
22379;DHT22;11357;49.990;7.370;2023-12-04T13:31:25;2.80;88.80
22379;DHT22;11357;49.990;7.370;2023-12-04T13:33:50;2.80;88.90
22379;DHT22;11357;49.990;7.370;2023-12-04T13:36:17;2.80;89.00
22379;DHT22;11357;49.990;7.370;2023-12-04T13:38:42;2.80;89.10
22379;DHT22;11357;49.990;7.370;2023-12-04T13:41:08;2.80;89.20
22379;DHT22;11357;49.990;7.370;2023-12-04T13:43:44;2.80;89.20
22379;DHT22;11357;49.990;7.370;2023-12-04T13:46:15;2.80;89.30
22379;DHT22;11357;49.990;7.370;2023-12-04T13:48:41;2.70;89.30
22379;DHT22;11357;49.990;7.370;2023-12-04T13:51:10;2.80;89.40
22379;DHT22;11357;49.990;7.370;2023-12-04T13:53:37;2.80;89.40
22379;DHT22;11357;49.990;7.370;2023-12-04T13:56:11;2.80;89.50
22379;DHT22;11357;49.990;7.370;2023-12-04T13:58:48;2.80;89.60
22379;DHT22;11357;49.990;7.370;2023-12-04T14:01:22;2.80;89.60
22379;DHT22;11357;49.990;7.370;2023-12-04T14:03:49;2.80;89.60
22379;DHT22;11357;49.990;7.370;2023-12-04T14:06:15;2.90;89.70
22379;DHT22;11357;49.990;7.370;2023-12-04T14:08:41;2.90;89.50
22379;DHT22;11357;49.990;7.370;2023-12-04T14:11:07;2.90;89.50
22379;DHT22;11357;49.990;7.370;2023-12-04T14:13:33;2.90;89.50
22379;DHT22;11357;49.990;7.370;2023-12-04T14:15:59;2.90;89.60
22379;DHT22;11357;49.990;7.370;2023-12-04T14:18:26;2.90;89.50
22379;DHT22;11357;49.990;7.370;2023-12-04T14:20:52;2.90;89.60
22379;DHT22;11357;49.990;7.370;2023-12-04T14:23:18;2.90;89.60
22379;DHT22;11357;49.990;7.370;2023-12-04T14:25:45;3.00;89.70
22379;DHT22;11357;49.990;7.370;2023-12-04T14:28:11;3.00;89.60
22379;DHT22;11357;49.990;7.370;2023-12-04T14:30:37;3.00;89.60
22379;DHT22;11357;49.990;7.370;2023-12-04T14:33:03;3.00;89.60
22379;DHT22;11357;49.990;7.370;2023-12-04T14:35:28;3.00;89.60
22379;DHT22;11357;49.990;7.370;2023-12-04T14:37:54;3.00;89.60
22379;DHT22;11357;49.990;7.370;2023-12-04T14:40:19;2.90;89.70
22379;DHT22;11357;49.990;7.370;2023-12-04T14:42:45;2.90;89.70
22379;DHT22;11357;49.990;7.370;2023-12-04T14:45:12;2.90;89.70
22379;DHT22;11357;49.990;7.370;2023-12-04T14:47:38;2.90;89.80
22379;DHT22;11357;49.990;7.370;2023-12-04T14:50:05;2.90;89.90
22379;DHT22;11357;49.990;7.370;2023-12-04T14:52:32;2.90;90.00
22379;DHT22;11357;49.990;7.370;2023-12-04T14:54:59;2.90;90.00
22379;DHT22;11357;49.990;7.370;2023-12-04T14:57:34;2.90;90.10
22379;DHT22;11357;49.990;7.370;2023-12-04T15:00:09;2.90;90.10
22379;DHT22;11357;49.990;7.370;2023-12-04T15:02:38;2.90;90.10
22379;DHT22;11357;49.990;7.370;2023-12-04T15:05:13;2.90;90.10
22379;DHT22;11357;49.990;7.370;2023-12-04T15:07:58;3.00;90.20
22379;DHT22;11357;49.990;7.370;2023-12-04T15:10:30;2.90;90.20
22379;DHT22;11357;49.990;7.370;2023-12-04T15:13:14;2.80;90.30
22379;DHT22;11357;49.990;7.370;2023-12-04T15:15:52;2.80;90.30
22379;DHT22;11357;49.990;7.370;2023-12-04T15:18:36;2.80;90.30
22379;DHT22;11357;49.990;7.370;2023-12-04T15:21:08;2.80;90.40
22379;DHT22;11357;49.990;7.370;2023-12-04T15:23:34;2.80;90.40
22379;DHT22;11357;49.990;7.370;2023-12-04T15:26:00;2.80;90.40
22379;DHT22;11357;49.990;7.370;2023-12-04T15:28:27;2.90;90.50
22379;DHT22;11357;49.990;7.370;2023-12-04T15:30:53;2.80;90.50
22379;DHT22;11357;49.990;7.370;2023-12-04T15:33:20;2.90;90.50
22379;DHT22;11357;49.990;7.370;2023-12-04T15:35:47;2.90;90.40
22379;DHT22;11357;49.990;7.370;2023-12-04T15:38:13;3.00;90.40
22379;DHT22;11357;49.990;7.370;2023-12-04T15:40:38;3.00;90.40
22379;DHT22;11357;49.990;7.370;2023-12-04T15:43:04;3.00;90.40